sensor_id;sensor_type;location;lat;lon;timestamp;pressure;altitude;pressure_sealevel;temperature;humidity
10618;BME280;5356;43.526;26.534;2023-09-19T00:00:45;99521.97;;;17.41;100.00
10618;BME280;5356;43.526;26.534;2023-09-19T00:03:12;99527.13;;;17.42;100.00
10618;BME280;5356;43.526;26.534;2023-09-19T00:05:38;99525.16;;;17.33;100.00
10618;BME280;5356;43.526;26.534;2023-09-19T00:08:04;99531.06;;;17.30;100.00
10618;BME280;5356;43.526;26.534;2023-09-19T00:10:31;99518.66;;;17.28;100.00
10618;BME280;5356;43.526;26.534;2023-09-19T00:12:57;99523.00;;;17.35;100.00
10618;BME280;5356;43.526;26.534;2023-09-19T00:15:26;99521.34;;;17.28;100.00
10618;BME280;5356;43.526;26.534;2023-09-19T00:17:56;99515.91;;;17.23;100.00
10618;BME280;5356;43.526;26.534;2023-09-19T00:20:22;99516.41;;;17.20;100.00
10618;BME280;5356;43.526;26.534;2023-09-19T00:22:51;99503.97;;;17.14;100.00
10618;BME280;5356;43.526;26.534;2023-09-19T00:25:17;99502.59;;;17.12;100.00
10618;BME280;5356;43.526;26.534;2023-09-19T00:27:43;99503.13;;;17.09;100.00
10618;BME280;5356;43.526;26.534;2023-09-19T00:30:11;99502.81;;;17.05;100.00
10618;BME280;5356;43.526;26.534;2023-09-19T00:32:44;99501.16;;;16.99;100.00
10618;BME280;5356;43.526;26.534;2023-09-19T00:35:09;99493.00;;;16.94;100.00
10618;BME280;5356;43.526;26.534;2023-09-19T00:37:36;99496.72;;;16.88;100.00
10618;BME280;5356;43.526;26.534;2023-09-19T00:40:09;99495.59;;;16.83;100.00
10618;BME280;5356;43.526;26.534;2023-09-19T00:42:42;99504.16;;;16.80;100.00
10618;BME280;5356;43.526;26.534;2023-09-19T00:45:12;99508.06;;;16.73;100.00
10618;BME280;5356;43.526;26.534;2023-09-19T00:47:43;99498.84;;;16.64;100.00
10618;BME280;5356;43.526;26.534;2023-09-19T00:50:09;99494.97;;;16.54;100.00
10618;BME280;5356;43.526;26.534;2023-09-19T00:52:37;99496.84;;;16.54;100.00
10618;BME280;5356;43.526;26.534;2023-09-19T00:55:07;99493.84;;;16.50;100.00
10618;BME280;5356;43.526;26.534;2023-09-19T00:57:34;99491.63;;;16.47;100.00
10618;BME280;5356;43.526;26.534;2023-09-19T01:00:02;99498.38;;;16.45;100.00
10618;BME280;5356;43.526;26.534;2023-09-19T01:02:32;99498.53;;;16.38;100.00
10618;BME280;5356;43.526;26.534;2023-09-19T01:04:59;99502.91;;;16.44;100.00
10618;BME280;5356;43.526;26.534;2023-09-19T01:07:26;99501.78;;;16.40;100.00
10618;BME280;5356;43.526;26.534;2023-09-19T01:09:52;99501.72;;;16.35;100.00
10618;BME280;5356;43.526;26.534;2023-09-19T01:12:35;99505.22;;;16.35;100.00
10618;BME280;5356;43.526;26.534;2023-09-19T01:15:20;99504.72;;;16.38;100.00
10618;BME280;5356;43.526;26.534;2023-09-19T01:23:05;99508.59;;;16.26;100.00
10618;BME280;5356;43.526;26.534;2023-09-19T01:29:12;99506.56;;;16.16;100.00
10618;BME280;5356;43.526;26.534;2023-09-19T01:31:40;99499.38;;;16.22;100.00
10618;BME280;5356;43.526;26.534;2023-09-19T01:34:08;99500.47;;;16.21;100.00
10618;BME280;5356;43.526;26.534;2023-09-19T01:36:37;99495.09;;;16.21;100.00
10618;BME280;5356;43.526;26.534;2023-09-19T01:39:11;99491.59;;;16.20;100.00
10618;BME280;5356;43.526;26.534;2023-09-19T01:44:59;99490.41;;;16.11;100.00
10618;BME280;5356;43.526;26.534;2023-09-19T01:47:33;99479.66;;;16.11;100.00
10618;BME280;5356;43.526;26.534;2023-09-19T01:50:27;99481.84;;;16.14;100.00
10618;BME280;5356;43.526;26.534;2023-09-19T01:52:59;99483.66;;;16.08;100.00
10618;BME280;5356;43.526;26.534;2023-09-19T01:55:29;99487.06;;;16.04;100.00
10618;BME280;5356;43.526;26.534;2023-09-19T01:58:04;99479.19;;;15.97;100.00
10618;BME280;5356;43.526;26.534;2023-09-19T02:00:34;99481.00;;;15.91;100.00
10618;BME280;5356;43.526;26.534;2023-09-19T02:03:02;99480.09;;;15.86;100.00
10618;BME280;5356;43.526;26.534;2023-09-19T02:05:28;99467.22;;;15.88;100.00
10618;BME280;5356;43.526;26.534;2023-09-19T02:07:54;99456.16;;;15.84;100.00
10618;BME280;5356;43.526;26.534;2023-09-19T02:10:21;99462.44;;;15.73;100.00
10618;BME280;5356;43.526;26.534;2023-09-19T02:12:46;99455.69;;;15.70;100.00
10618;BME280;5356;43.526;26.534;2023-09-19T02:15:12;99459.75;;;15.73;100.00
10618;BME280;5356;43.526;26.534;2023-09-19T02:17:41;99463.53;;;15.72;100.00
10618;BME280;5356;43.526;26.534;2023-09-19T02:20:08;99458.16;;;15.72;100.00
10618;BME280;5356;43.526;26.534;2023-09-19T02:22:35;99458.16;;;15.72;100.00
10618;BME280;5356;43.526;26.534;2023-09-19T02:25:02;99458.66;;;15.69;100.00
10618;BME280;5356;43.526;26.534;2023-09-19T02:27:30;99451.38;;;15.69;100.00
10618;BME280;5356;43.526;26.534;2023-09-19T02:29:56;99441.72;;;15.68;100.00
10618;BME280;5356;43.526;26.534;2023-09-19T02:32:21;99441.34;;;15.65;100.00
10618;BME280;5356;43.526;26.534;2023-09-19T02:34:48;99444.53;;;15.62;100.00
10618;BME280;5356;43.526;26.534;2023-09-19T02:37:14;99441.22;;;15.55;100.00
10618;BME280;5356;43.526;26.534;2023-09-19T02:39:41;99446.09;;;15.58;100.00
10618;BME280;5356;43.526;26.534;2023-09-19T02:42:07;99438.63;;;15.60;100.00
10618;BME280;5356;43.526;26.534;2023-09-19T02:44:32;99438.63;;;15.60;100.00
10618;BME280;5356;43.526;26.534;2023-09-19T02:46:59;99443.16;;;15.59;100.00
10618;BME280;5356;43.526;26.534;2023-09-19T02:49:24;99433.69;;;15.57;100.00
10618;BME280;5356;43.526;26.534;2023-09-19T02:51:50;99431.00;;;15.57;100.00
10618;BME280;5356;43.526;26.534;2023-09-19T02:54:16;99434.38;;;15.47;100.00
10618;BME280;5356;43.526;26.534;2023-09-19T02:56:42;99426.91;;;15.49;100.00
10618;BME280;5356;43.526;26.534;2023-09-19T02:59:08;99424.22;;;15.49;100.00
10618;BME280;5356;43.526;26.534;2023-09-19T03:01:35;99419.56;;;15.44;100.00
10618;BME280;5356;43.526;26.534;2023-09-19T03:04:02;99421.44;;;15.44;100.00
10618;BME280;5356;43.526;26.534;2023-09-19T03:06:28;99417.97;;;15.43;100.00
10618;BME280;5356;43.526;26.534;2023-09-19T03:08:56;99419.06;;;15.47;100.00
10618;BME280;5356;43.526;26.534;2023-09-19T03:11:22;99422.34;;;15.49;100.00
10618;BME280;5356;43.526;26.534;2023-09-19T03:13:54;99418.59;;;15.50;100.00
10618;BME280;5356;43.526;26.534;2023-09-19T03:16:20;99415.50;;;15.42;100.00
10618;BME280;5356;43.526;26.534;2023-09-19T03:18:48;99418.69;;;15.39;100.00
10618;BME280;5356;43.526;26.534;2023-09-19T03:21:17;99415.75;;;15.40;100.00
10618;BME280;5356;43.526;26.534;2023-09-19T03:23:44;99415.41;;;15.37;100.00
10618;BME280;5356;43.526;26.534;2023-09-19T03:26:11;99412.97;;;15.52;100.00
10618;BME280;5356;43.526;26.534;2023-09-19T03:28:37;99414.59;;;15.53;100.00
10618;BME280;5356;43.526;26.534;2023-09-19T03:31:04;99423.16;;;15.50;100.00
10618;BME280;5356;43.526;26.534;2023-09-19T03:33:30;99426.00;;;15.43;100.00
10618;BME280;5356;43.526;26.534;2023-09-19T03:36:02;99429.25;;;15.45;100.00
10618;BME280;5356;43.526;26.534;2023-09-19T03:38:31;99425.75;;;15.45;100.00
10618;BME280;5356;43.526;26.534;2023-09-19T03:40:58;99428.13;;;15.41;100.00
10618;BME280;5356;43.526;26.534;2023-09-19T03:43:24;99425.94;;;15.38;100.00
10618;BME280;5356;43.526;26.534;2023-09-19T03:45:49;99423.41;;;15.48;100.00
10618;BME280;5356;43.526;26.534;2023-09-19T03:48:16;99432.09;;;15.56;100.00
10618;BME280;5356;43.526;26.534;2023-09-19T03:50:42;99426.72;;;15.56;100.00
10618;BME280;5356;43.526;26.534;2023-09-19T03:53:09;99430.47;;;15.55;100.00
10618;BME280;5356;43.526;26.534;2023-09-19T03:55:34;99439.97;;;15.45;100.00
10618;BME280;5356;43.526;26.534;2023-09-19T03:58:04;99436.56;;;15.33;100.00
10618;BME280;5356;43.526;26.534;2023-09-19T04:00:30;99440.88;;;15.34;100.00
10618;BME280;5356;43.526;26.534;2023-09-19T04:02:55;99448.06;;;15.29;100.00
10618;BME280;5356;43.526;26.534;2023-09-19T04:05:22;99445.59;;;15.27;100.00
10618;BME280;5356;43.526;26.534;2023-09-19T04:07:48;99449.84;;;15.23;100.00
10618;BME280;5356;43.526;26.534;2023-09-19T04:10:13;99447.22;;;15.28;100.00
10618;BME280;5356;43.526;26.534;2023-09-19T04:12:40;99452.09;;;15.31;100.00
10618;BME280;5356;43.526;26.534;2023-09-19T04:15:06;99447.22;;;15.28;100.00
10618;BME280;5356;43.526;26.534;2023-09-19T04:17:32;99445.38;;;15.29;100.00
10618;BME280;5356;43.526;26.534;2023-09-19T04:19:58;99450.56;;;15.35;100.00
10618;BME280;5356;43.526;26.534;2023-09-19T04:22:24;99453.44;;;15.29;100.00
10618;BME280;5356;43.526;26.534;2023-09-19T04:24:49;99450.50;;;15.30;100.00
10618;BME280;5356;43.526;26.534;2023-09-19T04:27:15;99453.00;;;15.20;100.00
10618;BME280;5356;43.526;26.534;2023-09-19T04:29:41;99452.59;;;15.28;100.00
10618;BME280;5356;43.526;26.534;2023-09-19T04:32:09;99464.31;;;15.56;100.00
10618;BME280;5356;43.526;26.534;2023-09-19T04:34:35;99463.84;;;15.76;100.00
10618;BME280;5356;43.526;26.534;2023-09-19T04:37:01;99455.34;;;15.84;100.00
10618;BME280;5356;43.526;26.534;2023-09-19T04:39:27;99465.28;;;15.83;100.00
10618;BME280;5356;43.526;26.534;2023-09-19T04:41:53;99452.91;;;15.82;100.00
10618;BME280;5356;43.526;26.534;2023-09-19T04:44:20;99463.91;;;15.81;100.00
10618;BME280;5356;43.526;26.534;2023-09-19T04:46:46;99465.63;;;15.70;100.00
10618;BME280;5356;43.526;26.534;2023-09-19T04:49:12;99470.41;;;15.51;100.00
10618;BME280;5356;43.526;26.534;2023-09-19T04:51:40;99473.94;;;15.52;100.00
10618;BME280;5356;43.526;26.534;2023-09-19T04:54:06;99469.44;;;15.57;100.00
10618;BME280;5356;43.526;26.534;2023-09-19T04:56:32;99470.84;;;15.60;100.00
10618;BME280;5356;43.526;26.534;2023-09-19T04:58:58;99471.72;;;15.65;100.00
10618;BME280;5356;43.526;26.534;2023-09-19T05:01:24;99475.06;;;15.73;100.00
10618;BME280;5356;43.526;26.534;2023-09-19T05:03:50;99482.41;;;15.77;100.00
10618;BME280;5356;43.526;26.534;2023-09-19T05:06:18;99476.53;;;15.80;100.00
10618;BME280;5356;43.526;26.534;2023-09-19T05:08:46;99465.78;;;15.80;100.00
10618;BME280;5356;43.526;26.534;2023-09-19T05:11:14;99460.66;;;15.79;100.00
10618;BME280;5356;43.526;26.534;2023-09-19T05:13:40;99464.31;;;15.89;100.00
10618;BME280;5356;43.526;26.534;2023-09-19T05:16:05;99469.34;;;15.86;100.00
10618;BME280;5356;43.526;26.534;2023-09-19T05:18:31;99466.09;;;15.84;100.00
10618;BME280;5356;43.526;26.534;2023-09-19T05:20:57;99473.16;;;15.90;100.00
10618;BME280;5356;43.526;26.534;2023-09-19T05:23:22;99468.09;;;15.93;100.00
10618;BME280;5356;43.526;26.534;2023-09-19T05:25:47;99463.94;;;16.03;100.00
10618;BME280;5356;43.526;26.534;2023-09-19T05:28:13;99464.56;;;16.10;100.00
10618;BME280;5356;43.526;26.534;2023-09-19T05:30:40;99469.56;;;16.01;100.00
10618;BME280;5356;43.526;26.534;2023-09-19T05:33:08;99463.44;;;16.06;100.00
10618;BME280;5356;43.526;26.534;2023-09-19T05:35:34;99459.25;;;16.15;100.00
10618;BME280;5356;43.526;26.534;2023-09-19T05:38:05;99452.44;;;16.29;100.00
10618;BME280;5356;43.526;26.534;2023-09-19T05:40:34;99459.56;;;16.41;100.00
10618;BME280;5356;43.526;26.534;2023-09-19T05:43:00;99459.72;;;16.51;100.00
10618;BME280;5356;43.526;26.534;2023-09-19T05:45:25;99450.69;;;16.62;100.00
10618;BME280;5356;43.526;26.534;2023-09-19T05:47:52;99455.34;;;16.72;100.00
10618;BME280;5356;43.526;26.534;2023-09-19T05:50:21;99456.81;;;16.79;100.00
10618;BME280;5356;43.526;26.534;2023-09-19T05:52:53;99442.91;;;16.88;100.00
10618;BME280;5356;43.526;26.534;2023-09-19T05:55:19;99448.31;;;16.93;100.00
10618;BME280;5356;43.526;26.534;2023-09-19T05:57:52;99446.81;;;17.02;100.00
10618;BME280;5356;43.526;26.534;2023-09-19T06:00:22;99447.66;;;17.08;100.00
10618;BME280;5356;43.526;26.534;2023-09-19T06:02:51;99434.53;;;17.16;100.00
10618;BME280;5356;43.526;26.534;2023-09-19T06:05:17;99436.53;;;17.31;100.00
10618;BME280;5356;43.526;26.534;2023-09-19T06:07:43;99440.88;;;17.37;100.00
10618;BME280;5356;43.526;26.534;2023-09-19T06:10:09;99442.06;;;17.51;100.00
10618;BME280;5356;43.526;26.534;2023-09-19T06:12:41;99437.09;;;17.70;100.00
10618;BME280;5356;43.526;26.534;2023-09-19T06:15:11;99432.06;;;17.84;100.00
10618;BME280;5356;43.526;26.534;2023-09-19T06:17:49;99425.19;;;18.09;100.00
10618;BME280;5356;43.526;26.534;2023-09-19T06:20:15;99421.47;;;18.25;100.00
10618;BME280;5356;43.526;26.534;2023-09-19T06:22:45;99426.94;;;18.51;100.00
10618;BME280;5356;43.526;26.534;2023-09-19T06:25:12;99426.16;;;18.71;100.00
10618;BME280;5356;43.526;26.534;2023-09-19T06:27:39;99421.38;;;18.78;100.00
10618;BME280;5356;43.526;26.534;2023-09-19T06:30:08;99434.88;;;18.93;100.00
10618;BME280;5356;43.526;26.534;2023-09-19T06:32:34;99434.91;;;19.14;100.00
10618;BME280;5356;43.526;26.534;2023-09-19T06:34:59;99427.84;;;19.38;100.00
10618;BME280;5356;43.526;26.534;2023-09-19T06:37:27;99427.84;;;19.54;100.00
10618;BME280;5356;43.526;26.534;2023-09-19T06:39:53;99423.53;;;19.68;100.00
10618;BME280;5356;43.526;26.534;2023-09-19T06:42:19;99420.53;;;19.80;100.00
10618;BME280;5356;43.526;26.534;2023-09-19T06:44:44;99414.25;;;20.00;100.00
10618;BME280;5356;43.526;26.534;2023-09-19T06:47:10;99407.97;;;20.09;100.00
10618;BME280;5356;43.526;26.534;2023-09-19T06:49:36;99406.81;;;20.26;100.00
10618;BME280;5356;43.526;26.534;2023-09-19T06:52:01;99410.28;;;20.41;100.00
10618;BME280;5356;43.526;26.534;2023-09-19T06:54:28;99405.88;;;20.61;100.00
10618;BME280;5356;43.526;26.534;2023-09-19T06:56:56;99407.41;;;20.72;100.00
10618;BME280;5356;43.526;26.534;2023-09-19T06:59:24;99413.53;;;20.88;100.00
10618;BME280;5356;43.526;26.534;2023-09-19T07:01:49;99420.72;;;21.03;100.00
10618;BME280;5356;43.526;26.534;2023-09-19T07:04:16;99416.75;;;21.24;100.00
10618;BME280;5356;43.526;26.534;2023-09-19T07:06:42;99424.81;;;21.35;100.00
10618;BME280;5356;43.526;26.534;2023-09-19T07:09:08;99420.59;;;21.52;100.00
10618;BME280;5356;43.526;26.534;2023-09-19T07:11:34;99414.22;;;21.67;100.00
10618;BME280;5356;43.526;26.534;2023-09-19T07:13:59;99415.75;;;21.73;100.00
10618;BME280;5356;43.526;26.534;2023-09-19T07:16:25;99411.00;;;21.89;100.00
10618;BME280;5356;43.526;26.534;2023-09-19T07:18:55;99404.63;;;21.99;100.00
10618;BME280;5356;43.526;26.534;2023-09-19T07:21:22;99401.84;;;22.04;100.00
10618;BME280;5356;43.526;26.534;2023-09-19T07:23:48;99396.31;;;22.14;100.00
10618;BME280;5356;43.526;26.534;2023-09-19T07:26:15;99398.84;;;22.30;100.00
10618;BME280;5356;43.526;26.534;2023-09-19T07:28:40;99399.38;;;22.32;100.00
10618;BME280;5356;43.526;26.534;2023-09-19T07:31:06;99392.25;;;22.36;100.00
10618;BME280;5356;43.526;26.534;2023-09-19T07:33:35;99392.69;;;22.43;100.00
10618;BME280;5356;43.526;26.534;2023-09-19T07:36:01;99388.28;;;22.47;100.00
10618;BME280;5356;43.526;26.534;2023-09-19T07:38:27;99381.63;;;22.39;100.00
10618;BME280;5356;43.526;26.534;2023-09-19T07:40:52;99387.34;;;22.38;100.00
10618;BME280;5356;43.526;26.534;2023-09-19T07:43:17;99378.47;;;22.51;100.00
10618;BME280;5356;43.526;26.534;2023-09-19T07:45:43;99374.44;;;22.68;100.00
10618;BME280;5356;43.526;26.534;2023-09-19T07:48:09;99374.19;;;22.83;100.00
10618;BME280;5356;43.526;26.534;2023-09-19T07:50:39;99369.19;;;22.90;100.00
10618;BME280;5356;43.526;26.534;2023-09-19T07:53:05;99359.31;;;22.94;100.00
10618;BME280;5356;43.526;26.534;2023-09-19T07:55:31;99354.25;;;23.06;100.00
10618;BME280;5356;43.526;26.534;2023-09-19T07:58:00;99360.31;;;23.17;98.29
10618;BME280;5356;43.526;26.534;2023-09-19T08:00:26;99351.56;;;23.20;98.52
10618;BME280;5356;43.526;26.534;2023-09-19T08:02:51;99361.25;;;23.40;98.08
10618;BME280;5356;43.526;26.534;2023-09-19T08:05:19;99359.28;;;23.60;97.82
10618;BME280;5356;43.526;26.534;2023-09-19T08:07:46;99358.41;;;23.78;96.16
10618;BME280;5356;43.526;26.534;2023-09-19T08:10:15;99364.13;;;23.90;95.32
10618;BME280;5356;43.526;26.534;2023-09-19T08:12:45;99367.03;;;24.08;95.57
10618;BME280;5356;43.526;26.534;2023-09-19T08:15:16;99363.06;;;24.28;95.68
10618;BME280;5356;43.526;26.534;2023-09-19T08:17:42;99361.66;;;24.30;93.83
10618;BME280;5356;43.526;26.534;2023-09-19T08:20:09;99360.34;;;24.28;93.85
10618;BME280;5356;43.526;26.534;2023-09-19T08:22:50;99357.19;;;24.34;93.71
10618;BME280;5356;43.526;26.534;2023-09-19T08:25:23;99357.69;;;24.50;93.11
10618;BME280;5356;43.526;26.534;2023-09-19T08:27:50;99352.34;;;24.45;91.66
10618;BME280;5356;43.526;26.534;2023-09-19T08:30:17;99345.75;;;24.60;92.05
10618;BME280;5356;43.526;26.534;2023-09-19T08:32:43;99351.00;;;24.56;90.91
10618;BME280;5356;43.526;26.534;2023-09-19T08:35:12;99350.72;;;24.58;91.00
10618;BME280;5356;43.526;26.534;2023-09-19T08:37:37;99350.44;;;24.68;91.85
10618;BME280;5356;43.526;26.534;2023-09-19T08:40:03;99353.31;;;24.63;90.43
10618;BME280;5356;43.526;26.534;2023-09-19T08:42:28;99343.34;;;24.58;90.17
10618;BME280;5356;43.526;26.534;2023-09-19T08:44:55;99343.00;;;24.60;90.91
10618;BME280;5356;43.526;26.534;2023-09-19T08:47:34;99343.16;;;24.55;90.25
10618;BME280;5356;43.526;26.534;2023-09-19T08:52:42;99325.81;;;24.51;88.29
10618;BME280;5356;43.526;26.534;2023-09-19T08:55:11;99329.38;;;24.60;87.56
10618;BME280;5356;43.526;26.534;2023-09-19T08:57:38;99331.53;;;24.63;87.43
10618;BME280;5356;43.526;26.534;2023-09-19T09:00:07;99327.50;;;24.60;85.65
10618;BME280;5356;43.526;26.534;2023-09-19T09:02:38;99323.19;;;24.68;85.98
10618;BME280;5356;43.526;26.534;2023-09-19T09:05:09;99327.63;;;24.78;86.27
10618;BME280;5356;43.526;26.534;2023-09-19T09:07:37;99320.03;;;24.97;85.84
10618;BME280;5356;43.526;26.534;2023-09-19T09:10:03;99329.19;;;25.01;84.64
10618;BME280;5356;43.526;26.534;2023-09-19T09:12:29;99325.53;;;25.06;83.88
10618;BME280;5356;43.526;26.534;2023-09-19T09:14:55;99328.75;;;25.08;83.08
10618;BME280;5356;43.526;26.534;2023-09-19T09:17:26;99327.22;;;25.16;82.32
10618;BME280;5356;43.526;26.534;2023-09-19T09:19:54;99322.31;;;25.26;81.82
10618;BME280;5356;43.526;26.534;2023-09-19T09:22:20;99327.03;;;25.43;80.61
10618;BME280;5356;43.526;26.534;2023-09-19T09:24:56;99318.41;;;25.59;78.66
10618;BME280;5356;43.526;26.534;2023-09-19T09:27:29;99327.78;;;25.75;78.55
10618;BME280;5356;43.526;26.534;2023-09-19T09:29:54;99322.00;;;25.76;76.92
10618;BME280;5356;43.526;26.534;2023-09-19T09:37:17;99310.53;;;26.06;74.41
10618;BME280;5356;43.526;26.534;2023-09-19T09:39:56;99314.06;;;26.15;73.04
10618;BME280;5356;43.526;26.534;2023-09-19T09:42:33;99305.22;;;26.27;73.03
10618;BME280;5356;43.526;26.534;2023-09-19T09:45:17;99305.56;;;26.25;70.96
10618;BME280;5356;43.526;26.534;2023-09-19T09:47:48;99290.63;;;26.31;70.15
10618;BME280;5356;43.526;26.534;2023-09-19T09:50:33;99302.97;;;26.46;70.13
10618;BME280;5356;43.526;26.534;2023-09-19T09:53:29;99299.44;;;26.63;68.13
10618;BME280;5356;43.526;26.534;2023-09-19T09:56:08;99294.13;;;26.67;65.46
10618;BME280;5356;43.526;26.534;2023-09-19T09:58:35;99283.69;;;26.69;64.56
10618;BME280;5356;43.526;26.534;2023-09-19T10:01:02;99294.97;;;26.58;65.42
10618;BME280;5356;43.526;26.534;2023-09-19T10:03:36;99291.72;;;26.74;64.73
10618;BME280;5356;43.526;26.534;2023-09-19T10:06:09;99291.56;;;26.79;64.31
10618;BME280;5356;43.526;26.534;2023-09-19T10:09:02;99287.19;;;26.78;62.50
10618;BME280;5356;43.526;26.534;2023-09-19T10:11:42;99281.22;;;26.93;61.76
10618;BME280;5356;43.526;26.534;2023-09-19T10:14:10;99275.06;;;27.05;62.22
10618;BME280;5356;43.526;26.534;2023-09-19T10:16:40;99272.81;;;27.07;61.02
10618;BME280;5356;43.526;26.534;2023-09-19T10:19:07;99275.41;;;26.95;61.66
10618;BME280;5356;43.526;26.534;2023-09-19T10:21:36;99272.06;;;26.89;63.26
10618;BME280;5356;43.526;26.534;2023-09-19T10:24:03;99258.66;;;27.05;63.57
10618;BME280;5356;43.526;26.534;2023-09-19T10:26:30;99259.34;;;26.93;59.67
10618;BME280;5356;43.526;26.534;2023-09-19T10:28:57;99261.56;;;27.00;59.03
10618;BME280;5356;43.526;26.534;2023-09-19T10:31:29;99254.16;;;27.18;58.97
10618;BME280;5356;43.526;26.534;2023-09-19T10:34:02;99246.56;;;27.23;57.85
10618;BME280;5356;43.526;26.534;2023-09-19T10:36:32;99244.81;;;27.19;58.08
10618;BME280;5356;43.526;26.534;2023-09-19T10:39:00;99238.28;;;27.41;59.56
10618;BME280;5356;43.526;26.534;2023-09-19T10:41:30;99235.06;;;27.39;55.88
10618;BME280;5356;43.526;26.534;2023-09-19T10:44:02;99241.63;;;27.46;52.80
10618;BME280;5356;43.526;26.534;2023-09-19T10:46:28;99240.28;;;27.52;52.36
10618;BME280;5356;43.526;26.534;2023-09-19T10:48:59;99232.81;;;27.62;52.26
10618;BME280;5356;43.526;26.534;2023-09-19T10:51:29;99234.94;;;27.56;52.94
10618;BME280;5356;43.526;26.534;2023-09-19T10:54:10;99229.66;;;27.81;53.68
10618;BME280;5356;43.526;26.534;2023-09-19T10:56:43;99229.19;;;27.99;53.79
10618;BME280;5356;43.526;26.534;2023-09-19T10:59:18;99234.53;;;28.17;52.88
10618;BME280;5356;43.526;26.534;2023-09-19T11:01:50;99229.94;;;28.09;50.13
10618;BME280;5356;43.526;26.534;2023-09-19T11:04:35;99235.72;;;28.07;49.46
10618;BME280;5356;43.526;26.534;2023-09-19T11:09:48;99251.78;;;28.17;49.83
10618;BME280;5356;43.526;26.534;2023-09-19T11:14:54;99236.56;;;28.41;49.46
10618;BME280;5356;43.526;26.534;2023-09-19T11:30:45;99229.94;;;28.09;49.92
10618;BME280;5356;43.526;26.534;2023-09-19T11:33:32;99221.03;;;27.91;50.44
10618;BME280;5356;43.526;26.534;2023-09-19T11:36:07;99216.91;;;27.85;51.14
10618;BME280;5356;43.526;26.534;2023-09-19T11:46:30;99218.50;;;27.35;52.07
10618;BME280;5356;43.526;26.534;2023-09-19T11:49:05;99213.34;;;27.34;52.21
10618;BME280;5356;43.526;26.534;2023-09-19T11:51:51;99209.44;;;27.43;52.44
10618;BME280;5356;43.526;26.534;2023-09-19T11:54:17;99213.78;;;27.44;52.18
10618;BME280;5356;43.526;26.534;2023-09-19T11:56:50;99218.78;;;27.42;52.74
10618;BME280;5356;43.526;26.534;2023-09-19T11:59:29;99217.34;;;27.36;53.33
10618;BME280;5356;43.526;26.534;2023-09-19T12:02:01;99218.44;;;27.44;53.58
10618;BME280;5356;43.526;26.534;2023-09-19T12:04:39;99212.81;;;27.40;53.83
10618;BME280;5356;43.526;26.534;2023-09-19T12:07:07;99204.53;;;27.58;53.74
10618;BME280;5356;43.526;26.534;2023-09-19T12:09:38;99206.59;;;27.61;53.73
10618;BME280;5356;43.526;26.534;2023-09-19T12:12:05;99194.91;;;27.72;53.58
10618;BME280;5356;43.526;26.534;2023-09-19T12:14:30;99188.16;;;27.70;53.51
10618;BME280;5356;43.526;26.534;2023-09-19T12:16:57;99189.31;;;27.69;53.95
10618;BME280;5356;43.526;26.534;2023-09-19T12:19:24;99186.22;;;27.70;53.94
10618;BME280;5356;43.526;26.534;2023-09-19T12:22:03;99189.88;;;27.83;53.59
10618;BME280;5356;43.526;26.534;2023-09-19T12:24:34;99187.81;;;27.80;53.70
10618;BME280;5356;43.526;26.534;2023-09-19T12:27:05;99186.97;;;28.01;53.78
10618;BME280;5356;43.526;26.534;2023-09-19T12:29:31;99177.13;;;28.20;53.65
10618;BME280;5356;43.526;26.534;2023-09-19T12:31:58;99188.22;;;28.36;53.37
10618;BME280;5356;43.526;26.534;2023-09-19T12:34:31;99185.78;;;28.43;52.51
10618;BME280;5356;43.526;26.534;2023-09-19T12:37:18;99185.00;;;28.55;51.98
10618;BME280;5356;43.526;26.534;2023-09-19T12:40:04;99170.66;;;28.71;50.91
10618;BME280;5356;43.526;26.534;2023-09-19T12:42:41;99172.72;;;28.74;50.38
10618;BME280;5356;43.526;26.534;2023-09-19T12:45:07;99177.38;;;28.73;50.21
10618;BME280;5356;43.526;26.534;2023-09-19T12:47:34;99175.06;;;28.51;49.05
10618;BME280;5356;43.526;26.534;2023-09-19T12:50:13;99170.00;;;28.40;49.71
10618;BME280;5356;43.526;26.534;2023-09-19T12:52:52;99163.16;;;28.47;48.85
10618;BME280;5356;43.526;26.534;2023-09-19T12:55:25;99162.09;;;28.39;49.07
10618;BME280;5356;43.526;26.534;2023-09-19T13:00:40;99159.69;;;28.95;48.69
10618;BME280;5356;43.526;26.534;2023-09-19T13:03:16;99156.81;;;28.92;48.71
10618;BME280;5356;43.526;26.534;2023-09-19T13:05:53;99161.19;;;29.17;48.44
10618;BME280;5356;43.526;26.534;2023-09-19T13:08:38;99158.56;;;29.33;48.62
10618;BME280;5356;43.526;26.534;2023-09-19T13:11:15;99158.91;;;29.19;48.35
10618;BME280;5356;43.526;26.534;2023-09-19T13:14:13;99157.88;;;29.12;47.57
10618;BME280;5356;43.526;26.534;2023-09-19T13:22:36;99148.13;;;28.65;48.58
10618;BME280;5356;43.526;26.534;2023-09-19T13:24:51;99142.72;;;28.44;49.18
10618;BME280;5356;43.526;26.534;2023-09-19T13:27:17;99141.03;;;28.52;48.93
10618;BME280;5356;43.526;26.534;2023-09-19T13:29:42;99141.25;;;28.59;48.87
10618;BME280;5356;43.526;26.534;2023-09-19T13:32:08;99142.53;;;28.74;48.90
10618;BME280;5356;43.526;26.534;2023-09-19T13:34:36;99137.63;;;29.04;48.59
10618;BME280;5356;43.526;26.534;2023-09-19T13:37:03;99141.09;;;29.13;48.54
10618;BME280;5356;43.526;26.534;2023-09-19T13:39:30;99144.94;;;29.37;47.39
10618;BME280;5356;43.526;26.534;2023-09-19T13:41:55;99146.66;;;29.29;46.67
10618;BME280;5356;43.526;26.534;2023-09-19T13:44:21;99137.16;;;29.39;47.20
10618;BME280;5356;43.526;26.534;2023-09-19T13:46:46;99141.06;;;29.25;47.04
10618;BME280;5356;43.526;26.534;2023-09-19T13:49:11;99138.31;;;29.01;47.18
10618;BME280;5356;43.526;26.534;2023-09-19T13:51:37;99146.53;;;28.88;47.68
10618;BME280;5356;43.526;26.534;2023-09-19T13:54:03;99136.16;;;28.82;47.62
10618;BME280;5356;43.526;26.534;2023-09-19T13:56:28;99134.44;;;28.77;47.78
10618;BME280;5356;43.526;26.534;2023-09-19T13:58:55;99132.13;;;28.67;47.52